Island Heights, New Jersey
Current Conditions -  °F | °C
As of 11:15 AM on Monday 24 Nov 2014 (Local Time) from KMJX Reporting Station
Overcast Overcast  
Wind Chill: 66°   Ceiling: 1600
Heat Index: 66°   Visibility: 10mi
Dew Point: 63°   Wind: 8mph
Humidity: 88%   Direction: 180°S
Pressure: 29.68"   Gusts: NA
Location:  39.94°N, 74.15°W
Report Text: KMJX 241615Z AUTO 18007KT 10SM SCT011 BKN016 OVC023 19/17 A2968 RMK AO1
Loading
Personal Weather Stations






























Interactive Weather Map New forecast layout! Learn more

10-Day Weather Forecast

Advertisements
Track Severe Weather on mobile